createdAt,value
2023-05-24T00:00:18.710Z,61.35
2023-05-24T00:03:07.245Z,61.49
2023-05-24T00:05:41.244Z,61.50
2023-05-24T00:08:09.269Z,61.46
2023-05-24T00:10:37.023Z,61.45
2023-05-24T00:13:04.754Z,61.56
2023-05-24T00:15:32.547Z,61.59
2023-05-24T00:18:00.354Z,61.66
2023-05-24T00:20:29.094Z,61.77
2023-05-24T00:22:56.928Z,61.72
2023-05-24T00:25:24.727Z,61.84
2023-05-24T00:27:52.601Z,61.94
2023-05-24T00:30:20.433Z,61.92
2023-05-24T00:32:48.185Z,62.04
2023-05-24T00:35:16.397Z,62.13
2023-05-24T00:37:45.516Z,62.01
2023-05-24T00:40:13.428Z,61.97
2023-05-24T00:42:41.573Z,62.13
2023-05-24T00:45:10.087Z,62.05
2023-05-24T00:47:38.214Z,62.14
2023-05-24T00:50:08.501Z,62.14
2023-05-24T00:52:37.083Z,62.27
2023-05-24T00:55:06.152Z,62.33
2023-05-24T00:57:36.115Z,62.37
2023-05-24T01:00:05.891Z,62.46
2023-05-24T01:02:34.443Z,62.53
2023-05-24T01:05:03.100Z,62.48
2023-05-24T01:07:39.768Z,62.42
2023-05-24T01:10:17.073Z,62.70
2023-05-24T01:13:02.036Z,62.77
2023-05-24T01:16:12.963Z,62.98
2023-05-24T01:18:47.072Z,62.74
2023-05-24T01:21:38.749Z,63.01
2023-05-24T01:24:25.978Z,62.92
2023-05-24T01:27:06.705Z,63.05
2023-05-24T01:29:36.463Z,63.00
2023-05-24T01:32:05.187Z,63.11
2023-05-24T01:34:33.024Z,63.19
2023-05-24T01:37:01.153Z,63.32
2023-05-24T01:39:29.906Z,63.40
2023-05-24T01:42:16.613Z,63.39
2023-05-24T01:45:08.943Z,63.49
2023-05-24T01:47:52.456Z,63.58
2023-05-24T01:50:28.370Z,63.76
2023-05-24T01:53:02.580Z,63.62
2023-05-24T01:55:34.748Z,63.64
2023-05-24T01:58:04.764Z,63.68
2023-05-24T02:00:33.647Z,63.80
2023-05-24T02:03:02.517Z,63.82
2023-05-24T02:05:33.219Z,63.95
2023-05-24T02:08:01.555Z,64.01
2023-05-24T02:10:29.912Z,64.08
2023-05-24T02:12:59.699Z,64.19
2023-05-24T02:15:30.584Z,64.07
2023-05-24T02:17:58.818Z,64.19
2023-05-24T02:20:26.936Z,64.31
2023-05-24T02:22:55.671Z,64.40
2023-05-24T02:25:24.079Z,64.50
2023-05-24T02:27:52.228Z,64.55
2023-05-24T02:30:20.202Z,64.60
2023-05-24T02:32:47.971Z,64.67
2023-05-24T02:35:16.370Z,64.68
2023-05-24T02:37:44.762Z,64.86
2023-05-24T02:40:12.741Z,64.82
2023-05-24T02:42:40.511Z,64.93
2023-05-24T02:45:08.457Z,65.00
2023-05-24T02:47:36.248Z,65.13
2023-05-24T02:50:04.606Z,65.10
2023-05-24T02:52:33.167Z,65.18
2023-05-24T02:55:00.928Z,65.18
2023-05-24T02:57:28.979Z,65.38
2023-05-24T02:59:56.704Z,65.20
2023-05-24T03:02:24.451Z,65.44
2023-05-24T03:04:52.678Z,65.52
2023-05-24T03:07:20.441Z,65.50
2023-05-24T03:09:48.166Z,65.52
2023-05-24T03:12:15.979Z,65.72
2023-05-24T03:14:43.681Z,65.76
2023-05-24T03:17:11.527Z,65.81
2023-05-24T03:19:39.246Z,65.85
2023-05-24T03:22:07.040Z,65.90
2023-05-24T03:24:34.809Z,66.02
2023-05-24T03:27:02.646Z,66.13
2023-05-24T03:29:30.754Z,66.20
2023-05-24T03:31:58.533Z,66.15
2023-05-24T03:34:26.351Z,66.23
2023-05-24T03:36:54.068Z,66.34
2023-05-24T03:39:21.835Z,66.43
2023-05-24T03:41:49.628Z,66.40
2023-05-24T03:44:17.379Z,66.59
2023-05-24T03:46:45.101Z,66.71
2023-05-24T03:49:12.877Z,66.76
2023-05-24T03:51:40.704Z,66.75
2023-05-24T03:54:08.377Z,66.99
2023-05-24T03:56:37.385Z,66.91
2023-05-24T03:59:05.155Z,66.97
2023-05-24T04:01:34.470Z,67.07
2023-05-24T04:04:05.588Z,67.01
2023-05-24T04:06:33.383Z,67.23
2023-05-24T04:09:02.022Z,67.18
2023-05-24T04:11:30.003Z,67.36
2023-05-24T04:14:02.103Z,67.39
2023-05-24T04:16:31.899Z,67.36
2023-05-24T04:19:02.224Z,67.51
2023-05-24T04:21:32.476Z,67.37
2023-05-24T04:24:01.794Z,67.55
2023-05-24T04:26:30.287Z,67.37
2023-05-24T04:28:58.295Z,67.61
2023-05-24T04:31:30.469Z,67.84
2023-05-24T04:33:59.576Z,68.00
2023-05-24T04:36:28.943Z,67.86
2023-05-24T04:39:03.023Z,67.97
2023-05-24T04:41:32.285Z,68.12
2023-05-24T04:44:00.493Z,67.96
2023-05-24T04:46:28.636Z,68.10
2023-05-24T04:48:56.404Z,68.09
2023-05-24T04:51:24.331Z,68.18
2023-05-24T04:53:52.098Z,68.22
2023-05-24T04:56:20.045Z,68.23
2023-05-24T04:58:48.328Z,68.18
2023-05-24T05:01:16.207Z,68.18
2023-05-24T05:03:46.085Z,68.20
2023-05-24T05:06:14.165Z,68.32
2023-05-24T05:08:41.967Z,68.39
2023-05-24T05:11:10.058Z,68.40
2023-05-24T05:13:38.240Z,68.52
2023-05-24T05:16:06.162Z,68.50
2023-05-24T05:18:34.246Z,68.61
2023-05-24T05:21:03.233Z,68.78
2023-05-24T05:23:31.579Z,68.73
2023-05-24T05:25:59.315Z,68.76
2023-05-24T05:28:27.555Z,68.87
2023-05-24T05:30:56.946Z,68.71
2023-05-24T05:33:25.115Z,68.89
2023-05-24T05:35:54.852Z,68.85
2023-05-24T05:38:22.884Z,68.91
2023-05-24T05:40:50.636Z,68.90
2023-05-24T05:43:18.881Z,68.86
2023-05-24T05:45:46.805Z,68.86
2023-05-24T05:48:14.581Z,68.90
2023-05-24T05:50:42.451Z,68.98
2023-05-24T05:53:10.674Z,68.99
2023-05-24T05:55:38.432Z,69.03
2023-05-24T05:58:06.573Z,69.25
2023-05-24T06:00:34.746Z,69.24
2023-05-24T06:03:02.584Z,69.08
2023-05-24T06:05:30.449Z,69.05
2023-05-24T06:07:58.196Z,69.16
2023-05-24T06:10:26.007Z,69.11
2023-05-24T06:12:54.357Z,69.34
2023-05-24T06:15:23.437Z,69.20
2023-05-24T06:17:52.616Z,69.04
2023-05-24T06:20:20.549Z,68.96
2023-05-24T06:22:51.017Z,69.10
2023-05-24T06:25:20.959Z,69.18
2023-05-24T06:27:49.412Z,69.16
2023-05-24T06:30:18.116Z,69.18
2023-05-24T06:32:46.081Z,69.18
2023-05-24T06:35:14.308Z,69.21
2023-05-24T06:37:42.072Z,69.08
2023-05-24T06:40:10.207Z,69.17
2023-05-24T06:42:39.873Z,69.09
2023-05-24T06:45:09.489Z,69.11
2023-05-24T06:47:37.371Z,69.09
2023-05-24T06:50:05.868Z,69.19
2023-05-24T06:52:33.602Z,69.10
2023-05-24T06:55:01.471Z,69.10
2023-05-24T06:57:29.728Z,69.02
2023-05-24T06:59:57.513Z,69.17
2023-05-24T07:02:27.783Z,69.20
2023-05-24T07:04:55.752Z,69.31
2023-05-24T07:07:23.764Z,69.21
2023-05-24T07:09:51.961Z,69.09
2023-05-24T07:12:20.283Z,69.05
2023-05-24T07:14:48.004Z,68.96
2023-05-24T07:17:16.193Z,68.97
2023-05-24T07:19:44.069Z,68.98
2023-05-24T07:22:12.782Z,68.92
2023-05-24T07:24:41.235Z,68.98
2023-05-24T07:27:10.095Z,68.98
2023-05-24T07:29:37.893Z,68.97
2023-05-24T07:32:06.844Z,69.02
2023-05-24T07:34:34.713Z,69.13
2023-05-24T07:37:03.029Z,69.19
2023-05-24T07:39:31.328Z,69.18
2023-05-24T07:41:59.149Z,69.07
2023-05-24T07:44:27.196Z,69.04
2023-05-24T07:46:55.841Z,69.05
2023-05-24T07:49:24.284Z,69.20
2023-05-24T07:51:53.229Z,69.23
2023-05-24T07:54:21.574Z,69.24
2023-05-24T07:56:49.362Z,69.19
2023-05-24T07:59:17.199Z,69.37
2023-05-24T08:01:45.070Z,69.40
2023-05-24T08:04:12.808Z,69.43
2023-05-24T08:06:41.881Z,69.21
2023-05-24T08:09:10.322Z,69.16
2023-05-24T08:11:38.121Z,69.40
2023-05-24T08:14:05.920Z,69.40
2023-05-24T08:16:33.667Z,69.35
2023-05-24T08:19:01.439Z,69.56
2023-05-24T08:21:29.681Z,69.25
2023-05-24T08:23:58.029Z,69.40
2023-05-24T08:26:26.200Z,69.42
2023-05-24T08:28:54.978Z,69.40
2023-05-24T08:31:22.866Z,69.60
2023-05-24T08:33:51.465Z,69.55
2023-05-24T08:36:19.828Z,69.39
2023-05-24T08:38:48.001Z,69.52
2023-05-24T08:41:16.041Z,69.52
2023-05-24T08:43:44.481Z,69.31
2023-05-24T08:46:12.847Z,69.39
2023-05-24T08:48:48.361Z,69.27
2023-05-24T08:51:17.961Z,69.38
2023-05-24T08:53:49.206Z,69.17
2023-05-24T08:56:18.624Z,68.73
2023-05-24T08:58:47.381Z,69.04
2023-05-24T09:01:17.282Z,69.20
2023-05-24T09:03:47.306Z,68.51
2023-05-24T09:06:19.752Z,68.64
2023-05-24T09:08:52.560Z,68.71
2023-05-24T09:11:23.064Z,68.14
2023-05-24T09:13:51.486Z,67.70
2023-05-24T09:16:19.436Z,68.50
2023-05-24T09:18:47.903Z,68.21
2023-05-24T09:21:16.235Z,68.42
2023-05-24T09:23:45.574Z,68.08
2023-05-24T09:26:13.373Z,68.27
2023-05-24T09:28:42.236Z,68.10
2023-05-24T09:31:10.157Z,68.24
2023-05-24T09:33:39.770Z,67.50
2023-05-24T09:36:08.539Z,67.35
2023-05-24T09:38:36.981Z,66.83
2023-05-24T09:41:07.357Z,67.68
2023-05-24T09:43:47.083Z,67.34
2023-05-24T09:46:23.119Z,67.66
2023-05-24T09:49:03.794Z,67.41
2023-05-24T09:51:32.563Z,67.01
2023-05-24T09:54:03.649Z,66.92
2023-05-24T09:56:34.274Z,67.05
2023-05-24T09:59:08.940Z,67.18
2023-05-24T10:01:37.483Z,66.37
2023-05-24T10:04:10.225Z,66.78
2023-05-24T10:06:40.041Z,66.66
2023-05-24T10:09:09.905Z,66.96
2023-05-24T10:11:37.758Z,66.96
2023-05-24T10:14:09.354Z,66.95
2023-05-24T10:16:40.495Z,67.08
2023-05-24T10:19:08.307Z,67.14
2023-05-24T10:21:40.203Z,66.37
2023-05-24T10:24:11.262Z,66.22
2023-05-24T10:26:40.072Z,66.71
2023-05-24T10:29:16.222Z,66.19
2023-05-24T10:31:46.749Z,66.11
2023-05-24T10:34:15.731Z,66.42
2023-05-24T10:36:45.109Z,66.08
2023-05-24T10:39:32.023Z,66.13
2023-05-24T10:42:03.206Z,66.26
2023-05-24T10:44:32.084Z,65.53
2023-05-24T10:47:20.726Z,65.15
2023-05-24T10:49:53.299Z,65.03
2023-05-24T10:52:21.451Z,65.07
2023-05-24T10:55:10.544Z,64.61
2023-05-24T10:57:40.165Z,65.07
2023-05-24T11:00:30.785Z,65.40
2023-05-24T11:03:14.365Z,65.26
2023-05-24T11:05:49.982Z,65.24
2023-05-24T11:08:44.548Z,64.91
2023-05-24T11:11:23.970Z,64.45
2023-05-24T11:13:58.155Z,63.91
2023-05-24T11:16:39.415Z,64.42
2023-05-24T11:19:24.558Z,64.58
2023-05-24T11:21:53.933Z,64.42
2023-05-24T11:24:22.441Z,64.32
2023-05-24T11:26:55.039Z,63.65
2023-05-24T11:29:23.338Z,63.28
2023-05-24T11:31:57.906Z,63.54
2023-05-24T11:34:27.562Z,64.03
2023-05-24T11:36:56.625Z,63.11
2023-05-24T11:39:25.790Z,63.09
2023-05-24T11:41:54.419Z,63.41
2023-05-24T11:44:22.317Z,63.57
2023-05-24T11:46:50.090Z,63.76
2023-05-24T11:49:18.037Z,63.68
2023-05-24T11:51:46.912Z,63.36
2023-05-24T11:54:14.678Z,63.48
2023-05-24T11:56:42.790Z,63.60
2023-05-24T11:59:28.095Z,63.43
2023-05-24T12:02:01.058Z,63.66
2023-05-24T12:04:29.811Z,63.40
2023-05-24T12:06:58.202Z,63.37
2023-05-24T12:09:27.107Z,63.22
2023-05-24T12:11:55.830Z,63.25
2023-05-24T12:14:28.041Z,62.98
2023-05-24T12:16:57.388Z,63.13
2023-05-24T12:19:33.897Z,63.02
2023-05-24T12:22:06.126Z,63.00
2023-05-24T12:24:34.734Z,62.81
2023-05-24T12:27:07.584Z,63.12
2023-05-24T12:29:40.985Z,63.04
2023-05-24T12:32:13.991Z,62.63
2023-05-24T12:34:44.500Z,62.77
2023-05-24T12:37:13.652Z,62.73
2023-05-24T12:39:43.965Z,62.92
2023-05-24T12:42:13.543Z,63.09
2023-05-24T12:44:42.554Z,62.82
2023-05-24T12:47:10.630Z,62.78
2023-05-24T12:49:39.422Z,62.67
2023-05-24T12:52:07.252Z,62.47
2023-05-24T12:54:35.224Z,62.63
2023-05-24T12:57:03.688Z,62.59
2023-05-24T12:59:31.584Z,62.42
2023-05-24T13:02:11.986Z,62.77
2023-05-24T13:04:40.545Z,62.73
2023-05-24T13:07:08.348Z,62.79
2023-05-24T13:09:36.225Z,62.29
2023-05-24T13:12:05.134Z,62.51
2023-05-24T13:14:32.880Z,62.73
2023-05-24T13:17:01.237Z,62.60
2023-05-24T13:19:29.665Z,62.65
2023-05-24T13:21:57.602Z,62.67
2023-05-24T13:24:25.401Z,62.66
2023-05-24T13:26:54.817Z,62.70
2023-05-24T13:29:36.768Z,62.52
2023-05-24T13:32:11.043Z,62.42
2023-05-24T13:34:39.547Z,62.70
2023-05-24T13:37:07.932Z,62.58
2023-05-24T13:39:36.949Z,62.60
2023-05-24T13:42:05.268Z,62.22
2023-05-24T13:44:33.017Z,62.24
2023-05-24T13:47:02.561Z,62.31
2023-05-24T13:49:31.002Z,62.64
2023-05-24T13:51:59.013Z,62.41
2023-05-24T13:54:27.544Z,62.40
2023-05-24T13:56:57.708Z,61.93
2023-05-24T13:59:25.914Z,62.29
2023-05-24T14:01:54.423Z,62.51
2023-05-24T14:04:22.638Z,61.51
2023-05-24T14:06:50.558Z,62.02
2023-05-24T14:09:18.457Z,62.33
2023-05-24T14:11:46.197Z,62.00
2023-05-24T14:16:48.569Z,62.23
2023-05-24T14:19:17.299Z,62.14
2023-05-24T14:21:45.182Z,61.86
2023-05-24T14:24:12.943Z,61.53
2023-05-24T14:26:42.134Z,61.76
2023-05-24T14:29:10.078Z,61.92
2023-05-24T14:31:42.475Z,61.67
2023-05-24T14:34:11.322Z,61.61
2023-05-24T14:36:40.496Z,61.76
2023-05-24T14:39:08.913Z,61.63
2023-05-24T14:41:36.691Z,61.81
2023-05-24T14:44:04.934Z,61.68
2023-05-24T14:46:32.886Z,61.72
2023-05-24T14:49:02.670Z,61.77
2023-05-24T14:51:30.443Z,61.66
2023-05-24T14:53:58.391Z,61.47
2023-05-24T14:56:27.520Z,61.28
2023-05-24T14:58:55.406Z,61.17
2023-05-24T15:01:23.418Z,61.28
2023-05-24T15:03:51.848Z,61.42
2023-05-24T15:06:19.990Z,61.52
2023-05-24T15:08:47.920Z,61.30
2023-05-24T15:11:17.654Z,61.41
2023-05-24T15:13:45.382Z,61.33
2023-05-24T15:16:13.115Z,61.08
2023-05-24T15:18:41.293Z,61.30
2023-05-24T15:21:09.315Z,61.23
2023-05-24T15:23:37.064Z,61.52
2023-05-24T15:26:05.796Z,61.62
2023-05-24T15:28:33.654Z,61.69
2023-05-24T15:31:03.809Z,61.54
2023-05-24T15:33:32.913Z,61.32
2023-05-24T15:36:00.858Z,61.46
2023-05-24T15:38:28.641Z,61.33
2023-05-24T15:40:56.938Z,60.96
2023-05-24T15:43:24.710Z,61.11
2023-05-24T15:45:53.717Z,61.34
2023-05-24T15:48:22.782Z,61.06
2023-05-24T15:51:09.381Z,61.22
2023-05-24T15:53:38.464Z,60.83
2023-05-24T15:56:06.771Z,60.98
2023-05-24T15:58:35.071Z,60.66
2023-05-24T16:01:02.931Z,60.61
2023-05-24T16:03:31.252Z,60.91
2023-05-24T16:05:59.018Z,60.89
2023-05-24T16:08:28.632Z,60.97
2023-05-24T16:10:57.384Z,60.71
2023-05-24T16:13:25.921Z,60.70
2023-05-24T16:15:53.757Z,60.65
2023-05-24T16:18:23.111Z,60.68
2023-05-24T16:20:51.872Z,60.76
2023-05-24T16:23:23.149Z,60.67
2023-05-24T16:25:51.663Z,60.45
2023-05-24T16:28:24.763Z,60.29
2023-05-24T16:30:56.150Z,60.37
2023-05-24T16:33:25.322Z,60.50
2023-05-24T16:35:55.892Z,60.47
2023-05-24T16:38:25.703Z,60.49
2023-05-24T16:40:54.248Z,60.53
2023-05-24T16:43:22.765Z,60.60
2023-05-24T16:45:51.501Z,60.48
2023-05-24T16:48:21.856Z,60.47
2023-05-24T16:50:51.687Z,60.68
2023-05-24T16:53:23.025Z,60.63
2023-05-24T16:55:54.112Z,60.59
2023-05-24T16:58:23.777Z,60.40
2023-05-24T17:00:54.462Z,60.47
2023-05-24T17:03:28.868Z,60.48
2023-05-24T17:06:03.263Z,60.59
2023-05-24T17:08:36.487Z,60.46
2023-05-24T17:11:06.420Z,60.51
2023-05-24T17:13:34.812Z,60.43
2023-05-24T17:16:04.759Z,60.66
2023-05-24T17:18:32.579Z,60.66
2023-05-24T17:21:02.249Z,60.68
2023-05-24T17:23:32.105Z,60.45
2023-05-24T17:26:02.726Z,60.38
2023-05-24T17:28:30.772Z,60.52
2023-05-24T17:31:00.557Z,60.48
2023-05-24T17:33:30.681Z,60.53
2023-05-24T17:36:03.045Z,60.58
2023-05-24T17:38:33.235Z,60.71
2023-05-24T17:41:01.658Z,60.82
2023-05-24T17:43:32.900Z,60.70
2023-05-24T17:46:04.159Z,60.79
2023-05-24T17:48:34.251Z,60.73
2023-05-24T17:51:10.051Z,60.74
2023-05-24T17:53:38.629Z,60.86
2023-05-24T17:56:07.480Z,60.84
2023-05-24T17:58:38.030Z,61.13
2023-05-24T18:01:07.739Z,60.88
2023-05-24T18:03:37.510Z,61.05
2023-05-24T18:06:07.684Z,61.08
2023-05-24T18:08:38.374Z,61.11
2023-05-24T18:11:11.157Z,61.06
2023-05-24T18:13:40.571Z,61.02
2023-05-24T18:16:11.150Z,61.33
2023-05-24T18:18:39.391Z,61.53
2023-05-24T18:21:09.768Z,61.88
2023-05-24T18:23:38.326Z,61.66
2023-05-24T18:26:11.565Z,61.81
2023-05-24T18:28:41.479Z,61.79
2023-05-24T18:31:14.915Z,61.81
2023-05-24T18:33:43.740Z,62.05
2023-05-24T18:36:12.838Z,61.85
2023-05-24T18:38:41.581Z,62.53
2023-05-24T18:41:10.203Z,62.49
2023-05-24T18:43:38.113Z,62.70
2023-05-24T18:46:06.815Z,62.51
2023-05-24T18:48:34.686Z,62.45
2023-05-24T18:51:02.988Z,62.56
2023-05-24T18:53:30.725Z,62.68
2023-05-24T18:55:58.438Z,62.77
2023-05-24T18:58:26.186Z,62.92
2023-05-24T19:00:54.641Z,63.09
2023-05-24T19:03:23.203Z,63.33
2023-05-24T19:05:50.964Z,63.27
2023-05-24T19:08:18.801Z,63.26
2023-05-24T19:10:46.666Z,63.42
2023-05-24T19:13:14.845Z,63.52
2023-05-24T19:15:43.512Z,63.86
2023-05-24T19:18:11.855Z,63.63
2023-05-24T19:20:39.684Z,63.76
2023-05-24T19:23:07.632Z,63.98
2023-05-24T19:25:42.023Z,64.24
2023-05-24T19:28:11.560Z,63.88
2023-05-24T19:30:39.737Z,63.90
2023-05-24T19:33:08.022Z,63.95
2023-05-24T19:35:36.992Z,64.09
2023-05-24T19:38:04.766Z,64.09
2023-05-24T19:40:32.526Z,64.09
2023-05-24T19:43:00.352Z,64.50
2023-05-24T19:45:28.682Z,64.67
2023-05-24T19:47:57.054Z,64.51
2023-05-24T19:50:27.500Z,64.62
2023-05-24T19:52:56.528Z,64.83
2023-05-24T19:55:24.240Z,64.91
2023-05-24T19:57:51.959Z,64.72
2023-05-24T20:00:20.452Z,64.86
2023-05-24T20:02:48.738Z,64.93
2023-05-24T20:05:17.469Z,64.88
2023-05-24T20:07:45.493Z,64.94
2023-05-24T20:10:13.321Z,65.20
2023-05-24T20:12:42.792Z,65.09
2023-05-24T20:15:11.644Z,65.07
2023-05-24T20:17:39.902Z,65.21
2023-05-24T20:20:08.374Z,65.28
2023-05-24T20:22:36.132Z,65.37
2023-05-24T20:25:04.116Z,65.47
2023-05-24T20:27:31.862Z,65.44
2023-05-24T20:30:00.162Z,65.72
2023-05-24T20:32:28.499Z,65.68
2023-05-24T20:34:56.321Z,65.68
2023-05-24T20:37:24.110Z,65.77
2023-05-24T20:39:51.911Z,65.67
2023-05-24T20:42:19.773Z,65.85
2023-05-24T20:44:48.185Z,65.82
2023-05-24T20:47:18.530Z,65.94
2023-05-24T20:49:46.433Z,66.05
2023-05-24T20:52:14.478Z,66.08
2023-05-24T20:54:42.984Z,66.16
2023-05-24T20:57:10.944Z,66.08
2023-05-24T20:59:39.171Z,66.26
2023-05-24T21:02:07.514Z,66.36
2023-05-24T21:04:35.329Z,66.37
2023-05-24T21:07:03.138Z,66.46
2023-05-24T21:09:30.904Z,66.42
2023-05-24T21:11:59.419Z,66.51
2023-05-24T21:14:27.753Z,66.55
2023-05-24T21:16:55.600Z,66.55
2023-05-24T21:19:23.425Z,66.71
2023-05-24T21:21:51.248Z,66.67
2023-05-24T21:24:19.113Z,66.73
2023-05-24T21:26:47.411Z,66.80
2023-05-24T21:29:15.768Z,66.80
2023-05-24T21:31:43.569Z,66.89
2023-05-24T21:34:11.373Z,67.07
2023-05-24T21:36:39.094Z,67.08
2023-05-24T21:39:08.468Z,67.11
2023-05-24T21:41:38.442Z,67.31
2023-05-24T21:44:08.240Z,67.24
2023-05-24T21:46:36.603Z,67.28
2023-05-24T21:49:04.524Z,67.37
2023-05-24T21:51:32.251Z,67.55
2023-05-24T21:54:00.438Z,67.55
2023-05-24T21:56:28.697Z,67.47
2023-05-24T21:58:57.062Z,67.68
2023-05-24T22:01:24.853Z,67.60
2023-05-24T22:03:52.596Z,67.85
2023-05-24T22:06:20.726Z,67.75
2023-05-24T22:08:48.492Z,67.70
2023-05-24T22:11:16.515Z,67.76
2023-05-24T22:13:44.286Z,67.62
2023-05-24T22:16:12.038Z,67.92
2023-05-24T22:18:40.020Z,67.95
2023-05-24T22:21:07.813Z,67.90
2023-05-24T22:23:35.965Z,68.23
2023-05-24T22:26:03.784Z,68.14
2023-05-24T22:28:50.827Z,68.25
2023-05-24T22:31:20.027Z,68.25
2023-05-24T22:33:50.938Z,68.27
2023-05-24T22:36:18.920Z,68.26
2023-05-24T22:38:47.123Z,68.31
2023-05-24T22:41:14.839Z,68.35
2023-05-24T22:43:42.547Z,68.42
2023-05-24T22:46:10.868Z,68.64
2023-05-24T22:48:40.671Z,68.59
2023-05-24T22:51:09.336Z,68.65
2023-05-24T22:53:39.249Z,68.62
2023-05-24T22:56:10.484Z,68.62
2023-05-24T22:58:38.490Z,68.71
2023-05-24T23:01:06.306Z,68.78
2023-05-24T23:03:34.450Z,68.89
2023-05-24T23:06:04.542Z,68.80
2023-05-24T23:08:33.318Z,68.90
2023-05-24T23:11:01.399Z,68.93
2023-05-24T23:13:33.420Z,68.98
2023-05-24T23:16:01.368Z,68.97
2023-05-24T23:18:29.398Z,69.06
2023-05-24T23:20:57.174Z,69.09
2023-05-24T23:23:25.929Z,69.13
2023-05-24T23:25:53.686Z,69.20
2023-05-24T23:28:21.907Z,69.21
2023-05-24T23:30:49.714Z,69.30
2023-05-24T23:33:17.552Z,69.36
2023-05-24T23:35:45.695Z,69.34
2023-05-24T23:38:14.840Z,69.30
2023-05-24T23:40:42.788Z,69.38
2023-05-24T23:43:11.070Z,69.51
2023-05-24T23:45:38.847Z,69.46
2023-05-24T23:48:06.828Z,69.47
2023-05-24T23:50:46.369Z,69.58
2023-05-24T23:53:21.617Z,69.67
2023-05-24T23:55:49.852Z,69.70
2023-05-24T23:58:17.742Z,69.68
